createdAt,value
2023-05-14T00:02:01.642Z,2.83
2023-05-14T00:04:29.431Z,3.25
2023-05-14T00:06:57.063Z,1.98
2023-05-14T00:09:24.599Z,2.95
2023-05-14T00:11:52.298Z,2.47
2023-05-14T00:14:19.902Z,2.72
2023-05-14T00:16:47.561Z,2.35
2023-05-14T00:19:15.361Z,3.10
2023-05-14T00:21:42.963Z,2.08
2023-05-14T00:24:10.560Z,2.45
2023-05-14T00:26:38.061Z,3.85
2023-05-14T00:29:05.592Z,3.00
2023-05-14T00:31:33.308Z,4.25
2023-05-14T00:34:03.996Z,2.35
2023-05-14T00:36:31.623Z,2.70
2023-05-14T00:38:59.337Z,2.40
2023-05-14T00:41:26.922Z,4.68
2023-05-14T00:43:54.467Z,1.63
2023-05-14T00:46:22.260Z,3.75
2023-05-14T00:48:51.530Z,2.65
2023-05-14T00:51:19.230Z,3.03
2023-05-14T00:53:47.643Z,2.22
2023-05-14T00:56:16.266Z,2.65
2023-05-14T00:58:44.020Z,4.47
2023-05-14T01:01:15.105Z,3.78
2023-05-14T01:03:43.371Z,3.58
2023-05-14T01:06:17.885Z,2.40
2023-05-14T01:08:45.791Z,4.50
2023-05-14T01:11:32.021Z,2.53
2023-05-14T01:14:11.549Z,2.03
2023-05-14T01:16:40.192Z,3.08
2023-05-14T01:19:11.066Z,2.15
2023-05-14T01:21:40.822Z,3.60
2023-05-14T01:24:08.785Z,4.80
2023-05-14T01:26:37.385Z,2.67
2023-05-14T01:29:13.597Z,4.10
2023-05-14T01:34:09.556Z,1.73
2023-05-14T01:36:37.222Z,3.25
2023-05-14T01:39:04.954Z,2.28
2023-05-14T01:41:32.948Z,2.10
2023-05-14T01:44:01.806Z,3.30
2023-05-14T01:46:32.829Z,7.00
2023-05-14T01:49:01.164Z,3.00
2023-05-14T01:51:28.985Z,2.45
2023-05-14T01:53:56.615Z,2.30
2023-05-14T01:56:25.532Z,1.80
2023-05-14T01:58:53.202Z,2.03
2023-05-14T02:01:21.023Z,4.93
2023-05-14T02:03:48.655Z,2.47
2023-05-14T02:06:16.276Z,3.03
2023-05-14T02:08:43.815Z,2.97
2023-05-14T02:11:11.564Z,4.00
2023-05-14T02:13:39.113Z,4.88
2023-05-14T02:16:06.860Z,3.55
2023-05-14T02:18:34.935Z,1.63
2023-05-14T02:21:02.545Z,2.40
2023-05-14T02:23:40.509Z,3.05
2023-05-14T02:26:10.529Z,4.22
2023-05-14T02:28:38.132Z,2.50
2023-05-14T02:31:05.770Z,2.33
2023-05-14T02:33:33.611Z,2.33
2023-05-14T02:36:01.272Z,2.17
2023-05-14T02:38:28.848Z,2.53
2023-05-14T02:40:57.416Z,3.70
2023-05-14T02:43:25.065Z,4.60
2023-05-14T02:45:53.072Z,2.88
2023-05-14T02:48:20.830Z,3.15
2023-05-14T02:50:52.174Z,1.50
2023-05-14T02:53:19.943Z,3.05
2023-05-14T02:55:47.560Z,2.70
2023-05-14T02:58:15.305Z,2.22
2023-05-14T03:00:42.894Z,1.80
2023-05-14T03:03:11.360Z,2.00
2023-05-14T03:05:39.343Z,2.30
2023-05-14T03:08:06.924Z,3.80
2023-05-14T03:10:34.755Z,2.65
2023-05-14T03:13:02.414Z,1.75
2023-05-14T03:15:30.009Z,2.35
2023-05-14T03:17:58.495Z,1.95
2023-05-14T03:20:27.583Z,1.70
2023-05-14T03:22:56.147Z,1.75
2023-05-14T03:25:23.963Z,2.80
2023-05-14T03:27:52.526Z,3.20
2023-05-14T03:30:20.211Z,2.75
2023-05-14T03:32:49.208Z,5.05
2023-05-14T03:35:16.855Z,3.25
2023-05-14T03:37:44.569Z,2.50
2023-05-14T03:40:12.340Z,1.60
2023-05-14T03:42:39.958Z,4.05
2023-05-14T03:45:08.103Z,2.03
2023-05-14T03:47:35.771Z,1.77
2023-05-14T03:50:03.466Z,2.20
2023-05-14T03:52:31.109Z,2.30
2023-05-14T03:54:58.712Z,1.42
2023-05-14T03:57:26.428Z,1.73
2023-05-14T03:59:54.051Z,1.67
2023-05-14T04:02:21.844Z,2.65
2023-05-14T04:04:49.475Z,1.95
2023-05-14T04:07:20.190Z,1.48
2023-05-14T04:09:47.721Z,2.25
2023-05-14T04:12:15.283Z,1.98
2023-05-14T04:14:42.942Z,1.98
2023-05-14T04:17:10.511Z,2.55
2023-05-14T04:19:39.228Z,1.58
2023-05-14T04:22:06.932Z,1.70
2023-05-14T04:24:34.473Z,1.80
2023-05-14T04:27:01.998Z,2.28
2023-05-14T04:29:29.559Z,1.55
2023-05-14T04:31:57.206Z,3.33
2023-05-14T04:34:24.830Z,1.52
2023-05-14T04:36:52.612Z,2.25
2023-05-14T04:39:20.192Z,2.60
2023-05-14T04:41:47.706Z,3.22
2023-05-14T04:44:15.833Z,3.25
2023-05-14T04:46:43.351Z,2.58
2023-05-14T04:49:10.976Z,2.30
2023-05-14T04:51:38.533Z,2.65
2023-05-14T04:54:06.147Z,3.30
2023-05-14T04:56:33.672Z,1.73
2023-05-14T04:59:01.208Z,1.83
2023-05-14T05:01:28.886Z,2.65
2023-05-14T05:03:57.796Z,2.70
2023-05-14T05:06:25.394Z,3.20
2023-05-14T05:08:52.902Z,2.70
2023-05-14T05:11:21.285Z,2.92
2023-05-14T05:13:48.814Z,4.72
2023-05-14T05:16:16.422Z,4.28
2023-05-14T05:18:44.674Z,3.05
2023-05-14T05:21:12.303Z,5.18
2023-05-14T05:23:39.856Z,3.58
2023-05-14T05:26:07.420Z,3.47
2023-05-14T05:28:35.055Z,3.63
2023-05-14T05:31:03.031Z,6.75
2023-05-14T05:33:30.729Z,3.15
2023-05-14T05:35:58.295Z,3.75
2023-05-14T05:38:25.923Z,5.47
2023-05-14T05:40:53.796Z,5.63
2023-05-14T05:43:21.475Z,5.00
2023-05-14T05:45:49.051Z,3.63
2023-05-14T05:48:16.683Z,3.50
2023-05-14T05:50:44.862Z,4.43
2023-05-14T05:53:12.473Z,4.70
2023-05-14T05:55:41.133Z,5.32
2023-05-14T05:58:08.762Z,3.60
2023-05-14T06:00:36.936Z,4.28
2023-05-14T06:03:04.551Z,5.18
2023-05-14T06:05:32.214Z,3.13
2023-05-14T06:07:59.824Z,5.75
2023-05-14T06:10:27.430Z,3.83
2023-05-14T06:12:55.063Z,6.03
2023-05-14T06:15:23.244Z,4.13
2023-05-14T06:17:50.875Z,4.95
2023-05-14T06:20:18.549Z,6.22
2023-05-14T06:22:48.427Z,5.28
2023-05-14T06:25:16.014Z,7.07
2023-05-14T06:27:43.596Z,5.65
2023-05-14T06:30:11.596Z,5.40
2023-05-14T06:32:39.343Z,5.70
2023-05-14T06:35:07.310Z,6.53
2023-05-14T06:37:35.104Z,6.28
2023-05-14T06:40:03.676Z,6.75
2023-05-14T06:42:31.357Z,4.70
2023-05-14T06:44:59.689Z,6.15
2023-05-14T06:47:27.568Z,6.70
2023-05-14T06:49:56.568Z,6.50
2023-05-14T06:52:24.149Z,6.20
2023-05-14T06:54:52.252Z,5.28
2023-05-14T06:57:19.958Z,3.88
2023-05-14T06:59:47.541Z,6.53
2023-05-14T07:02:15.213Z,4.28
2023-05-14T07:04:42.792Z,4.13
2023-05-14T07:07:13.553Z,3.10
2023-05-14T07:09:41.929Z,3.97
2023-05-14T07:12:09.662Z,6.70
2023-05-14T07:14:37.253Z,3.40
2023-05-14T07:17:05.108Z,3.45
2023-05-14T07:19:32.871Z,3.70
2023-05-14T07:22:01.126Z,3.63
2023-05-14T07:24:28.714Z,3.67
2023-05-14T07:26:57.275Z,3.95
2023-05-14T07:29:25.529Z,5.40
2023-05-14T07:31:53.095Z,4.15
2023-05-14T07:34:20.993Z,3.92
2023-05-14T07:36:48.590Z,3.90
2023-05-14T07:39:16.974Z,4.18
2023-05-14T07:41:45.019Z,4.15
2023-05-14T07:44:12.599Z,4.75
2023-05-14T07:46:41.063Z,4.45
2023-05-14T07:49:22.443Z,5.55
2023-05-14T07:52:02.158Z,5.32
2023-05-14T07:54:29.854Z,4.97
2023-05-14T07:56:57.422Z,3.97
2023-05-14T07:59:25.056Z,5.60
2023-05-14T08:01:52.770Z,3.88
2023-05-14T08:04:20.498Z,5.78
2023-05-14T08:06:48.117Z,4.72
2023-05-14T08:09:15.961Z,4.15
2023-05-14T08:11:43.640Z,4.28
2023-05-14T08:14:36.710Z,5.93
2023-05-14T08:17:04.645Z,6.20
2023-05-14T08:19:32.318Z,7.95
2023-05-14T08:21:59.986Z,4.60
2023-05-14T08:24:27.641Z,5.75
2023-05-14T08:26:55.911Z,5.30
2023-05-14T08:29:23.647Z,5.82
2023-05-14T08:31:51.476Z,5.53
2023-05-14T08:34:22.806Z,5.03
2023-05-14T08:36:50.926Z,5.05
2023-05-14T08:39:18.544Z,6.90
2023-05-14T08:41:46.298Z,4.78
2023-05-14T08:44:14.898Z,5.57
2023-05-14T08:46:42.867Z,3.60
2023-05-14T08:49:21.566Z,4.68
2023-05-14T08:51:49.339Z,4.25
2023-05-14T08:54:18.034Z,4.43
2023-05-14T08:56:46.576Z,4.38
2023-05-14T08:59:14.564Z,5.13
2023-05-14T09:01:45.872Z,5.63
2023-05-14T09:04:14.124Z,8.48
2023-05-14T09:06:43.002Z,12.73
2023-05-14T09:09:11.426Z,8.73
2023-05-14T09:11:49.111Z,6.63
2023-05-14T09:14:23.109Z,4.70
2023-05-14T09:16:51.889Z,5.78
2023-05-14T09:19:19.943Z,6.10
2023-05-14T09:21:48.101Z,4.40
2023-05-14T09:24:22.487Z,4.25
2023-05-14T09:26:53.911Z,6.68
2023-05-14T09:29:21.688Z,7.45
2023-05-14T09:32:10.079Z,8.18
2023-05-14T09:34:38.054Z,5.50
2023-05-14T09:37:27.639Z,6.82
2023-05-14T09:39:55.212Z,4.82
2023-05-14T09:42:49.286Z,4.53
2023-05-14T09:45:17.566Z,5.88
2023-05-14T09:47:45.632Z,4.93
2023-05-14T09:50:38.379Z,5.18
2023-05-14T09:53:12.607Z,4.20
2023-05-14T09:55:40.340Z,7.35
2023-05-14T09:58:08.133Z,4.50
2023-05-14T10:00:35.903Z,5.18
2023-05-14T10:03:06.139Z,4.60
2023-05-14T10:05:37.156Z,4.82
2023-05-14T10:08:08.547Z,5.40
2023-05-14T10:10:36.864Z,5.72
2023-05-14T10:13:05.638Z,7.68
2023-05-14T10:16:05.481Z,5.65
2023-05-14T10:18:35.972Z,5.88
2023-05-14T10:21:05.686Z,6.10
2023-05-14T10:23:34.322Z,6.35
2023-05-14T10:26:02.165Z,6.20
2023-05-14T10:28:29.950Z,7.57
2023-05-14T10:30:57.464Z,7.60
2023-05-14T10:33:25.080Z,6.20
2023-05-14T10:35:55.848Z,6.75
2023-05-14T10:38:27.469Z,7.22
2023-05-14T10:41:24.692Z,8.70
2023-05-14T10:46:30.065Z,7.57
2023-05-14T10:48:58.021Z,9.48
2023-05-14T10:51:29.956Z,8.70
2023-05-14T10:53:57.626Z,7.70
2023-05-14T10:56:25.292Z,9.27
2023-05-14T10:58:52.898Z,7.85
2023-05-14T11:01:24.605Z,7.68
2023-05-14T11:03:53.954Z,8.77
2023-05-14T11:06:21.562Z,8.52
2023-05-14T11:08:51.532Z,8.40
2023-05-14T11:11:19.210Z,7.18
2023-05-14T11:13:46.925Z,8.27
2023-05-14T11:18:49.105Z,9.35
2023-05-14T11:21:17.988Z,8.90
2023-05-14T11:23:47.179Z,7.57
2023-05-14T11:26:14.739Z,6.90
2023-05-14T11:28:42.325Z,6.93
2023-05-14T11:31:10.718Z,6.88
2023-05-14T11:33:38.306Z,7.40
2023-05-14T11:36:06.061Z,6.53
2023-05-14T11:38:33.614Z,9.20
2023-05-14T11:41:01.338Z,6.30
2023-05-14T11:43:29.371Z,6.60
2023-05-14T11:45:57.226Z,6.55
2023-05-14T11:48:25.059Z,6.78
2023-05-14T11:50:53.342Z,6.35
2023-05-14T11:53:21.387Z,7.82
2023-05-14T11:55:48.972Z,5.13
2023-05-14T11:58:18.760Z,4.85
2023-05-14T12:00:47.381Z,5.40
2023-05-14T12:03:15.150Z,4.75
2023-05-14T12:05:55.363Z,3.58
2023-05-14T12:08:23.697Z,5.55
2023-05-14T12:10:51.245Z,5.30
2023-05-14T12:13:18.885Z,3.58
2023-05-14T12:15:47.383Z,3.63
2023-05-14T12:18:24.185Z,4.70
2023-05-14T12:20:52.411Z,4.85
2023-05-14T12:23:27.004Z,6.57
2023-05-14T12:26:19.111Z,3.85
2023-05-14T12:28:48.559Z,2.95
2023-05-14T12:31:16.246Z,3.58
2023-05-14T12:34:27.666Z,3.83
2023-05-14T12:36:55.985Z,4.88
2023-05-14T12:39:23.807Z,7.03
2023-05-14T12:41:51.332Z,6.13
2023-05-14T12:44:19.173Z,5.70
2023-05-14T12:46:47.069Z,4.63
2023-05-14T12:49:14.668Z,6.30
2023-05-14T12:51:42.344Z,4.13
2023-05-14T12:54:11.145Z,5.15
2023-05-14T12:56:41.283Z,4.85
2023-05-14T12:59:09.555Z,5.85
2023-05-14T13:01:38.283Z,4.00
2023-05-14T13:04:06.453Z,2.53
2023-05-14T13:06:34.200Z,4.30
2023-05-14T13:09:02.359Z,5.38
2023-05-14T13:11:31.823Z,4.25
2023-05-14T13:14:00.001Z,6.13
2023-05-14T13:16:28.231Z,3.88
2023-05-14T13:18:56.542Z,4.40
2023-05-14T13:21:24.182Z,2.38
2023-05-14T13:23:51.773Z,4.30
2023-05-14T13:26:19.405Z,4.03
2023-05-14T13:28:47.025Z,3.63
2023-05-14T13:31:14.860Z,3.13
2023-05-14T13:33:43.480Z,5.50
2023-05-14T13:36:12.003Z,3.95
2023-05-14T13:38:39.571Z,3.65
2023-05-14T13:41:07.223Z,2.88
2023-05-14T13:43:35.774Z,3.13
2023-05-14T13:46:04.313Z,3.28
2023-05-14T13:48:32.339Z,3.90
2023-05-14T13:51:00.098Z,3.65
2023-05-14T13:53:27.921Z,4.18
2023-05-14T13:56:00.350Z,3.90
2023-05-14T13:58:28.657Z,3.83
2023-05-14T14:00:57.704Z,4.80
2023-05-14T14:03:25.360Z,5.05
2023-05-14T14:05:53.373Z,4.75
2023-05-14T14:08:24.060Z,5.70
2023-05-14T14:10:54.752Z,3.50
2023-05-14T14:13:22.992Z,4.30
2023-05-14T14:15:51.138Z,4.63
2023-05-14T14:18:18.928Z,6.03
2023-05-14T14:20:46.830Z,3.30
2023-05-14T14:23:14.815Z,3.53
2023-05-14T14:25:42.733Z,3.88
2023-05-14T14:28:10.324Z,4.88
2023-05-14T14:30:38.917Z,4.80
2023-05-14T14:33:06.649Z,4.03
2023-05-14T14:35:37.430Z,9.20
2023-05-14T14:38:05.316Z,3.97
2023-05-14T14:40:34.125Z,4.57
2023-05-14T14:43:02.148Z,3.80
2023-05-14T14:45:29.791Z,5.05
2023-05-14T14:48:16.104Z,4.63
2023-05-14T14:50:43.690Z,4.57
2023-05-14T14:53:11.224Z,3.97
2023-05-14T14:55:38.778Z,4.75
2023-05-14T14:58:06.274Z,4.15
2023-05-14T15:00:33.862Z,4.38
2023-05-14T15:03:03.826Z,4.72
2023-05-14T15:05:31.454Z,3.50
2023-05-14T15:07:58.944Z,4.32
2023-05-14T15:10:38.377Z,5.05
2023-05-14T15:13:06.733Z,4.32
2023-05-14T15:15:34.992Z,4.38
2023-05-14T15:18:03.522Z,3.17
2023-05-14T15:20:31.233Z,6.05
2023-05-14T15:23:08.814Z,4.45
2023-05-14T15:25:36.610Z,4.10
2023-05-14T15:28:06.085Z,3.90
2023-05-14T15:30:33.664Z,4.38
2023-05-14T15:33:01.381Z,4.45
2023-05-14T15:35:28.948Z,5.43
2023-05-14T15:37:57.292Z,5.13
2023-05-14T15:40:24.988Z,4.70
2023-05-14T15:42:52.658Z,4.13
2023-05-14T15:45:20.297Z,5.65
2023-05-14T15:47:47.991Z,4.90
2023-05-14T15:50:15.503Z,5.25
2023-05-14T15:52:43.098Z,4.72
2023-05-14T15:55:10.879Z,4.60
2023-05-14T15:57:38.452Z,6.25
2023-05-14T16:00:12.173Z,4.05
2023-05-14T16:02:39.998Z,4.35
2023-05-14T16:05:09.192Z,5.93
2023-05-14T16:07:37.502Z,5.25
2023-05-14T16:10:07.816Z,5.63
2023-05-14T16:12:35.607Z,4.50
2023-05-14T16:15:03.178Z,3.92
2023-05-14T16:17:32.675Z,4.85
2023-05-14T16:20:01.472Z,4.72
2023-05-14T16:22:29.577Z,3.63
2023-05-14T16:24:57.279Z,3.67
2023-05-14T16:27:25.034Z,3.80
2023-05-14T16:29:52.594Z,5.88
2023-05-14T16:32:21.565Z,5.60
2023-05-14T16:34:52.233Z,4.50
2023-05-14T16:37:20.602Z,3.50
2023-05-14T16:39:48.481Z,3.97
2023-05-14T16:42:16.122Z,4.95
2023-05-14T16:44:43.990Z,6.35
2023-05-14T16:47:12.082Z,4.88
2023-05-14T16:49:39.664Z,4.55
2023-05-14T16:52:08.413Z,5.35
2023-05-14T16:54:36.440Z,4.32
2023-05-14T16:57:04.174Z,4.85
2023-05-14T16:59:31.682Z,4.78
2023-05-14T17:01:59.377Z,5.68
2023-05-14T17:04:27.207Z,4.95
2023-05-14T17:06:56.003Z,5.43
2023-05-14T17:09:23.680Z,6.03
2023-05-14T17:11:52.459Z,5.88
2023-05-14T17:14:19.992Z,5.47
2023-05-14T17:16:47.636Z,5.50
2023-05-14T17:19:15.489Z,7.15
2023-05-14T17:21:43.058Z,6.97
2023-05-14T17:24:10.703Z,8.32
2023-05-14T17:26:38.207Z,6.65
2023-05-14T17:29:05.717Z,6.43
2023-05-14T17:31:33.321Z,4.20
2023-05-14T17:34:00.943Z,5.30
2023-05-14T17:36:28.638Z,5.32
2023-05-14T17:38:56.250Z,4.90
2023-05-14T17:41:23.878Z,4.70
2023-05-14T17:43:52.786Z,5.28
2023-05-14T17:46:21.385Z,5.43
2023-05-14T17:48:48.980Z,5.60
2023-05-14T17:51:16.830Z,6.35
2023-05-14T17:53:44.469Z,6.97
2023-05-14T17:56:12.212Z,6.35
2023-05-14T17:58:39.956Z,4.93
2023-05-14T18:01:09.011Z,5.35
2023-05-14T18:03:37.033Z,6.53
2023-05-14T18:06:05.008Z,8.35
2023-05-14T18:08:32.649Z,6.25
2023-05-14T18:11:00.807Z,5.72
2023-05-14T18:13:28.970Z,7.50
2023-05-14T18:15:58.879Z,9.55
2023-05-14T18:18:26.776Z,10.07
2023-05-14T18:20:54.744Z,6.93
2023-05-14T18:23:28.794Z,6.70
2023-05-14T18:25:56.529Z,5.15
2023-05-14T18:28:27.461Z,6.35
2023-05-14T18:30:55.112Z,6.10
2023-05-14T18:33:31.685Z,5.85
2023-05-14T18:36:02.216Z,6.85
2023-05-14T18:38:29.789Z,8.52
2023-05-14T18:40:57.375Z,9.07
2023-05-14T18:43:25.038Z,10.02
2023-05-14T18:45:52.671Z,8.75
2023-05-14T18:48:20.285Z,7.20
2023-05-14T18:50:47.805Z,8.55
2023-05-14T18:53:15.326Z,7.65
2023-05-14T18:55:43.223Z,9.48
2023-05-14T18:58:11.245Z,7.60
2023-05-14T19:00:38.762Z,7.15
2023-05-14T19:03:06.960Z,6.72
2023-05-14T19:05:34.739Z,9.00
2023-05-14T19:08:02.294Z,8.95
2023-05-14T19:10:29.806Z,9.30
2023-05-14T19:12:57.636Z,8.05
2023-05-14T19:15:25.828Z,8.20
2023-05-14T19:17:54.334Z,8.15
2023-05-14T19:20:21.996Z,8.82
2023-05-14T19:22:49.704Z,8.65
2023-05-14T19:25:17.574Z,9.30
2023-05-14T19:27:47.610Z,9.23
2023-05-14T19:30:15.558Z,9.35
2023-05-14T19:32:43.271Z,8.02
2023-05-14T19:35:11.732Z,8.75
2023-05-14T19:37:39.395Z,9.23
2023-05-14T19:40:07.349Z,8.57
2023-05-14T19:42:34.962Z,8.70
2023-05-14T19:45:03.738Z,7.75
2023-05-14T19:47:31.364Z,8.05
2023-05-14T19:49:58.931Z,7.47
2023-05-14T19:52:26.498Z,7.90
2023-05-14T19:54:54.013Z,8.05
2023-05-14T19:57:21.587Z,7.65
2023-05-14T19:59:49.112Z,8.13
2023-05-14T20:02:21.822Z,8.02
2023-05-14T20:04:49.534Z,9.48
2023-05-14T20:07:17.192Z,10.73
2023-05-14T20:09:44.810Z,9.07
2023-05-14T20:12:13.222Z,9.13
2023-05-14T20:14:41.374Z,8.90
2023-05-14T20:17:08.965Z,8.88
2023-05-14T20:19:36.699Z,8.35
2023-05-14T20:22:04.292Z,8.05
2023-05-14T20:24:31.798Z,12.75
2023-05-14T20:26:59.419Z,9.75
2023-05-14T20:29:27.075Z,10.77
2023-05-14T20:31:54.560Z,10.55
2023-05-14T20:34:22.141Z,10.23
2023-05-14T20:36:49.958Z,11.10
2023-05-14T20:39:18.251Z,8.90
2023-05-14T20:41:45.891Z,10.82
2023-05-14T20:44:13.496Z,9.38
2023-05-14T20:46:41.105Z,11.35
2023-05-14T20:49:08.830Z,9.85
2023-05-14T20:51:36.384Z,9.30
2023-05-14T20:54:04.145Z,8.90
2023-05-14T20:56:31.728Z,10.23
2023-05-14T20:58:59.469Z,10.07
2023-05-14T21:01:27.095Z,12.32
2023-05-14T21:03:55.056Z,9.95
2023-05-14T21:06:22.698Z,10.32
2023-05-14T21:08:50.390Z,9.68
2023-05-14T21:11:17.908Z,9.75
2023-05-14T21:13:45.626Z,9.27
2023-05-14T21:16:13.337Z,9.60
2023-05-14T21:18:40.981Z,8.32
2023-05-14T21:21:08.637Z,9.90
2023-05-14T21:23:36.194Z,8.88
2023-05-14T21:26:03.830Z,9.10
2023-05-14T21:28:31.389Z,10.88
2023-05-14T21:30:59.061Z,9.68
2023-05-14T21:33:26.713Z,9.38
2023-05-14T21:35:54.369Z,9.00
2023-05-14T21:38:22.010Z,9.85
2023-05-14T21:40:49.679Z,10.60
2023-05-14T21:43:17.422Z,10.18
2023-05-14T21:45:47.221Z,10.45
2023-05-14T21:48:23.901Z,9.38
2023-05-14T21:50:51.535Z,10.60
2023-05-14T21:53:19.204Z,10.50
2023-05-14T21:55:46.840Z,9.93
2023-05-14T21:58:14.370Z,9.95
2023-05-14T22:04:11.986Z,11.50
2023-05-14T22:06:39.577Z,10.95
2023-05-14T22:09:07.281Z,12.15
2023-05-14T22:11:34.811Z,11.32
2023-05-14T22:14:02.370Z,11.32
2023-05-14T22:17:31.169Z,12.65
2023-05-14T22:19:58.828Z,13.68
2023-05-14T22:22:26.377Z,14.35
2023-05-14T22:24:53.929Z,17.05
2023-05-14T22:27:21.482Z,14.30
2023-05-14T22:29:49.241Z,16.45
2023-05-14T22:32:16.853Z,16.65
2023-05-14T22:34:44.421Z,18.60
2023-05-14T22:37:11.970Z,18.52
2023-05-14T22:39:39.572Z,18.83
2023-05-14T22:42:07.127Z,19.77
2023-05-14T22:44:36.566Z,19.55
2023-05-14T22:47:10.637Z,19.33
2023-05-14T22:49:38.246Z,19.35
2023-05-14T22:52:05.967Z,20.98
2023-05-14T22:54:33.520Z,19.92
2023-05-14T22:57:01.172Z,20.92
2023-05-14T22:59:28.941Z,21.50
2023-05-14T23:01:56.482Z,20.75
2023-05-14T23:04:24.149Z,20.80
2023-05-14T23:06:51.785Z,20.25
2023-05-14T23:09:19.494Z,21.80
2023-05-14T23:11:47.101Z,20.83
2023-05-14T23:14:14.721Z,20.95
2023-05-14T23:16:42.239Z,21.48
2023-05-14T23:19:09.912Z,20.23
2023-05-14T23:21:37.670Z,21.35
2023-05-14T23:24:05.430Z,22.33
2023-05-14T23:26:33.118Z,23.40
2023-05-14T23:29:00.741Z,23.83
2023-05-14T23:31:28.422Z,22.48
2023-05-14T23:33:57.009Z,27.30
2023-05-14T23:36:24.642Z,26.45
2023-05-14T23:38:52.511Z,27.75
2023-05-14T23:41:21.676Z,27.23
2023-05-14T23:43:49.372Z,26.48
2023-05-14T23:46:17.104Z,26.02
2023-05-14T23:48:44.672Z,27.00
2023-05-14T23:51:12.222Z,24.50
2023-05-14T23:53:39.789Z,23.17
2023-05-14T23:56:07.451Z,22.90
2023-05-14T23:58:35.007Z,25.00
